• Join FlightAware (Why Join?)
  • Login
  • US Flag 
10:34PM EDT


 

Airport Tracker/Info


-or-


 

Live Flight TrackerFlight Track Log ✈ ASH3770 ✈ 12-May-2013 ✈ KIAD - KPIT

Flight Track Log - Related Links

Times and Time Zones

All times are in EDT time to prevent confusion due to time zone crossing. See the ASH3770 flight status page for this flight to view local times or setup timezone preferences in your user account.

Time Position Orientation Groundspeed Altitude Reporting Facility
EDT Latitude Longitude Course Direction KTS MPH feet Rate Location/Type
05:12PM 38.9667 -77.4333 290° West 155 178 2,100  Level Potomac TRACON
05:13PM 39.0167 -77.4333 360° North 229 264 3,500 2,280 Climbing Potomac TRACON
05:14PM 39.0667 -77.4833 322° Northwest 252 290 6,500 3,000 Climbing Potomac TRACON
05:15PM 39.2814 -77.5388 344° North  Level FlightAware Approximate
05:15PM 39.1333 -77.5167 339° North 266 306 9,600  Level Potomac TRACON
05:16PM 39.3692 -77.5718 344° North  Level FlightAware Approximate
05:17PM 39.4532 -77.5947 290° West  Level FlightAware Approximate
05:17PM 39.2697 -77.6022 334° Northwest 300 345 13,100  Level Washington Center
05:18PM 39.3436 -77.6714 324° Northwest 320 368 15,200 2,160 Climbing Washington Center
05:19PM 39.4194 -77.7433 324° Northwest 337 388 17,400 1,440 Climbing Washington Center
05:21PM 39.5656 -77.9467 313° West 346 398 20,000 780 Climbing Cleveland Center
05:22PM 39.6036 -78.0667 292° West 346 398 20,000  Level Cleveland Center
05:23PM 39.6375 -78.1839 291° West 351 404 20,000  Level Cleveland Center
05:24PM 39.6711 -78.2961 291° West 351 404 20,000  Level Cleveland Center
05:25PM 39.7044 -78.4083 291° West 344 396 20,000  Level Cleveland Center
05:26PM 39.7378 -78.5233 291° West 344 396 20,000  Level Cleveland Center
05:27PM 39.7711 -78.6358 291° West 344 396 20,000  Level Cleveland Center
05:28PM 39.8003 -78.7592 287° West 338 389 20,000  Level Cleveland Center
05:29PM 39.8333 -78.8664 292° West 333 383 20,000  Level Cleveland Center
05:30PM 39.8681 -78.9736 293° West 328 377 20,000 -120 Level Cleveland Center
05:31PM 39.9011 -79.0867 291° West 328 377 19,800 -5,040 Descending Cleveland Center
05:32PM 39.9294 -79.1942 289° West 328 377 10,000 -1,620 Descending Cleveland Center
05:33PM 39.9578 -79.2967 290° West 323 372 16,600 2,400 Climbing Cleveland Center
05:34PM 39.9942 -79.3881 297° West 312 359 14,800 -1,800 Descending Cleveland Center
05:35PM 40.0472 -79.4711 310° West 293 337 13,000 -1,860 Descending Cleveland Center
05:36PM 40.1022 -79.5489 313° West 298 343 11,100 -1,560 Descending Cleveland Center
05:37PM 40.1589 -79.6186 317° Northwest 290 334 9,900 -720 Descending Cleveland Center
05:38PM 40.2117 -79.6833 317° Northwest 275 316 9,700 -1,020 Descending Cleveland Center
05:39PM 40.2622 -79.7478 316° Northwest 264 304 7,900 -1,800 Descending Cleveland Center
05:40PM 40.3147 -79.8097 318° Northwest 258 297 6,200 -1,200 Descending Cleveland Center
05:41PM 40.3608 -79.8692 316° Northwest 245 282 5,600 -960 Descending Cleveland Center
05:42PM 40.4008 -79.9206 316° Northwest 224 258 4,300 -960 Descending Cleveland Center
05:43PM 40.4408 -79.9692 317° Northwest 206 237 3,700 -660 Descending Cleveland Center
05:44PM 40.4764 -80.0208 312° West 194 223 3,000 -720 Descending Cleveland Center